createdAt,value
2023-02-15T00:00:56.068Z,2.79
2023-02-15T00:03:34.535Z,2.78
2023-02-15T00:06:07.460Z,2.75
2023-02-15T00:08:39.697Z,2.73
2023-02-15T00:11:16.057Z,2.64
2023-02-15T00:13:48.317Z,2.64
2023-02-15T00:16:20.512Z,2.60
2023-02-15T00:18:55.708Z,2.58
2023-02-15T00:21:27.933Z,2.55
2023-02-15T00:24:01.030Z,2.54
2023-02-15T00:26:33.628Z,2.59
2023-02-15T00:29:06.382Z,2.64
2023-02-15T00:31:39.205Z,2.66
2023-02-15T00:34:15.493Z,2.68
2023-02-15T00:36:48.530Z,2.57
2023-02-15T00:39:21.792Z,2.50
2023-02-15T00:41:54.069Z,2.49
2023-02-15T00:44:26.397Z,2.45
2023-02-15T00:46:58.843Z,2.47
2023-02-15T00:49:31.210Z,2.45
2023-02-15T00:52:03.449Z,2.45
2023-02-15T00:54:36.787Z,2.43
2023-02-15T00:57:09.163Z,2.38
2023-02-15T00:59:41.354Z,2.32
2023-02-15T01:02:13.655Z,2.24
2023-02-15T01:04:46.267Z,2.20
2023-02-15T01:07:18.626Z,2.16
2023-02-15T01:09:50.967Z,2.14
2023-02-15T01:12:23.246Z,2.10
2023-02-15T01:14:55.589Z,2.07
2023-02-15T01:17:28.285Z,2.02
2023-02-15T01:20:01.431Z,1.96
2023-02-15T01:22:33.693Z,1.91
2023-02-15T01:25:06.544Z,1.90
2023-02-15T01:27:38.830Z,1.89
2023-02-15T01:30:13.491Z,1.87
2023-02-15T01:32:46.637Z,1.84
2023-02-15T01:35:19.044Z,1.83
2023-02-15T01:37:51.457Z,1.86
2023-02-15T01:40:24.815Z,1.88
2023-02-15T01:42:58.517Z,1.90
2023-02-15T01:45:32.593Z,1.91
2023-02-15T01:48:08.172Z,1.92
2023-02-15T01:50:43.817Z,1.95
2023-02-15T01:53:20.343Z,2.01
2023-02-15T01:55:56.604Z,2.04
2023-02-15T01:58:31.380Z,2.05
2023-02-15T02:01:06.858Z,2.05
2023-02-15T02:03:52.135Z,2.04
2023-02-15T02:06:26.459Z,2.00
2023-02-15T02:08:59.948Z,1.94
2023-02-15T02:11:32.281Z,1.91
2023-02-15T02:14:04.665Z,1.87
2023-02-15T02:16:47.480Z,1.80
2023-02-15T02:19:56.615Z,1.78
2023-02-15T02:23:10.453Z,1.72
2023-02-15T02:26:11.914Z,1.75
2023-02-15T02:29:30.399Z,1.72
2023-02-15T02:32:27.109Z,1.63
2023-02-15T02:35:03.448Z,1.60
2023-02-15T02:37:46.694Z,1.59
2023-02-15T02:40:27.357Z,1.59
2023-02-15T02:43:05.498Z,1.60
2023-02-15T02:45:48.040Z,1.63
2023-02-15T02:48:25.022Z,1.63
2023-02-15T02:50:57.415Z,1.66
2023-02-15T02:53:32.666Z,1.67
2023-02-15T02:56:08.788Z,1.67
2023-02-15T02:58:47.402Z,1.67
2023-02-15T03:01:25.002Z,1.70
2023-02-15T03:04:02.971Z,1.75
2023-02-15T03:06:42.818Z,1.82
2023-02-15T03:09:19.870Z,1.82
2023-02-15T03:11:53.027Z,1.81
2023-02-15T03:14:25.449Z,1.80
2023-02-15T03:16:58.755Z,1.80
2023-02-15T03:19:35.708Z,1.76
2023-02-15T03:22:13.211Z,1.73
2023-02-15T03:24:51.320Z,1.72
2023-02-15T03:27:26.929Z,1.68
2023-02-15T03:30:02.253Z,1.61
2023-02-15T03:32:37.622Z,1.53
2023-02-15T03:35:10.887Z,1.51
2023-02-15T03:37:48.858Z,1.51
2023-02-15T03:40:43.068Z,1.44
2023-02-15T03:43:21.737Z,1.29
2023-02-15T03:45:59.940Z,1.29
2023-02-15T03:48:37.324Z,1.25
2023-02-15T03:51:32.002Z,1.23
2023-02-15T03:54:06.522Z,1.17
2023-02-15T03:56:40.851Z,1.09
2023-02-15T03:59:30.616Z,1.11
2023-02-15T04:02:17.479Z,1.16
2023-02-15T04:04:51.407Z,1.20
2023-02-15T04:07:23.702Z,1.25
2023-02-15T04:10:13.764Z,1.29
2023-02-15T04:12:46.713Z,1.39
2023-02-15T04:15:36.419Z,1.43
2023-02-15T04:18:09.039Z,1.46
2023-02-15T04:20:58.647Z,1.50
2023-02-15T04:23:48.465Z,1.56
2023-02-15T04:26:20.679Z,1.54
2023-02-15T04:28:53.039Z,1.54
2023-02-15T04:31:25.503Z,1.56
2023-02-15T04:33:58.064Z,1.56
2023-02-15T04:36:30.318Z,1.49
2023-02-15T04:39:02.655Z,1.46
2023-02-15T04:41:35.592Z,1.44
2023-02-15T04:44:08.345Z,1.42
2023-02-15T04:46:40.653Z,1.39
2023-02-15T04:49:13.359Z,1.35
2023-02-15T04:51:45.808Z,1.31
2023-02-15T04:54:18.094Z,1.28
2023-02-15T04:56:50.514Z,1.24
2023-02-15T04:59:22.702Z,1.22
2023-02-15T05:01:55.166Z,1.20
2023-02-15T05:04:27.905Z,1.19
2023-02-15T05:07:00.300Z,1.17
2023-02-15T05:09:32.711Z,1.18
2023-02-15T05:12:05.136Z,1.16
2023-02-15T05:14:37.464Z,1.18
2023-02-15T05:17:09.845Z,1.20
2023-02-15T05:19:42.200Z,1.21
2023-02-15T05:22:14.589Z,1.23
2023-02-15T05:25:04.184Z,1.20
2023-02-15T05:27:54.225Z,1.21
2023-02-15T05:30:26.707Z,1.28
2023-02-15T05:32:59.133Z,1.34
2023-02-15T05:35:31.341Z,1.40
2023-02-15T05:38:06.422Z,1.39
2023-02-15T05:40:39.105Z,1.36
2023-02-15T05:43:11.418Z,1.35
2023-02-15T05:45:46.493Z,1.35
2023-02-15T05:48:19.665Z,1.34
2023-02-15T05:51:01.502Z,1.37
2023-02-15T05:53:35.971Z,1.50
2023-02-15T05:56:10.380Z,1.62
2023-02-15T05:58:43.958Z,1.70
2023-02-15T06:01:18.245Z,1.78
2023-02-15T06:03:50.767Z,1.84
2023-02-15T06:06:23.293Z,1.89
2023-02-15T06:08:56.194Z,2.08
2023-02-15T06:11:28.583Z,2.26
2023-02-15T06:14:00.962Z,2.53
2023-02-15T06:16:33.458Z,2.65
2023-02-15T06:19:06.434Z,2.70
2023-02-15T06:21:38.820Z,2.76
2023-02-15T06:24:12.101Z,2.87
2023-02-15T06:26:44.456Z,3.04
2023-02-15T06:29:16.951Z,3.30
2023-02-15T06:31:49.381Z,3.67
2023-02-15T06:34:21.808Z,4.11
2023-02-15T06:36:54.334Z,4.55
2023-02-15T06:39:26.822Z,5.01
2023-02-15T06:41:59.722Z,5.47
2023-02-15T06:44:33.134Z,5.69
2023-02-15T06:47:05.580Z,5.91
2023-02-15T06:49:37.889Z,6.02
2023-02-15T06:52:10.412Z,6.09
2023-02-15T06:54:43.890Z,6.23
2023-02-15T06:57:16.276Z,6.43
2023-02-15T06:59:48.579Z,6.60
2023-02-15T07:02:21.005Z,6.93
2023-02-15T07:04:53.401Z,7.28
2023-02-15T07:07:25.770Z,7.66
2023-02-15T07:09:58.093Z,7.99
2023-02-15T07:12:46.033Z,8.28
2023-02-15T07:15:21.784Z,8.49
2023-02-15T07:17:54.345Z,8.62
2023-02-15T07:20:27.307Z,8.73
2023-02-15T07:22:59.784Z,8.85
2023-02-15T07:25:32.317Z,8.87
2023-02-15T07:28:06.149Z,8.86
2023-02-15T07:30:38.436Z,8.82
2023-02-15T07:33:25.859Z,8.69
2023-02-15T07:35:59.962Z,8.52
2023-02-15T07:38:35.457Z,8.31
2023-02-15T07:41:09.447Z,8.23
2023-02-15T07:43:44.112Z,8.29
2023-02-15T07:46:17.928Z,8.36
2023-02-15T07:48:50.505Z,8.33
2023-02-15T07:51:22.808Z,8.43
2023-02-15T07:53:55.142Z,8.38
2023-02-15T07:56:27.647Z,8.34
2023-02-15T07:59:04.140Z,8.57
2023-02-15T08:01:38.295Z,8.69
2023-02-15T08:04:12.175Z,8.54
2023-02-15T08:06:44.541Z,8.43
2023-02-15T08:09:16.838Z,8.51
2023-02-15T08:11:51.391Z,8.58
2023-02-15T08:14:24.553Z,8.49
2023-02-15T08:17:03.508Z,8.56
2023-02-15T08:19:36.794Z,8.68
2023-02-15T08:22:11.360Z,8.73
2023-02-15T08:24:43.814Z,8.95
2023-02-15T08:27:16.176Z,9.07
2023-02-15T08:29:48.573Z,9.24
2023-02-15T08:32:21.106Z,9.51
2023-02-15T08:34:53.749Z,9.71
2023-02-15T08:37:26.836Z,9.95
2023-02-15T08:39:59.195Z,10.11
2023-02-15T08:42:31.537Z,10.32
2023-02-15T08:45:03.871Z,10.50
2023-02-15T08:47:36.206Z,10.39
2023-02-15T08:50:10.046Z,10.33
2023-02-15T08:52:42.732Z,10.30
2023-02-15T08:55:15.038Z,10.23
2023-02-15T08:57:48.074Z,10.23
2023-02-15T09:00:23.613Z,10.30
2023-02-15T09:02:56.266Z,10.24
2023-02-15T09:05:28.872Z,10.11
2023-02-15T09:08:01.250Z,10.17
2023-02-15T09:10:33.637Z,10.27
2023-02-15T09:13:06.062Z,10.31
2023-02-15T09:15:38.448Z,10.46
2023-02-15T09:18:10.731Z,10.61
2023-02-15T09:20:43.044Z,10.71
2023-02-15T09:23:26.843Z,10.59
2023-02-15T09:26:04.377Z,10.65
2023-02-15T09:28:37.166Z,10.47
2023-02-15T09:31:12.174Z,10.44
2023-02-15T09:33:46.604Z,10.57
2023-02-15T09:36:22.647Z,10.57
2023-02-15T09:39:00.133Z,10.67
2023-02-15T09:42:08.031Z,10.86
2023-02-15T09:45:00.459Z,11.07
2023-02-15T09:47:54.518Z,11.17
2023-02-15T09:50:36.772Z,11.25
2023-02-15T09:53:29.830Z,11.09
2023-02-15T09:56:09.063Z,10.97
2023-02-15T09:58:54.622Z,11.11
2023-02-15T10:01:38.769Z,11.26
2023-02-15T10:04:27.109Z,11.43
2023-02-15T10:07:07.917Z,11.56
2023-02-15T10:09:52.506Z,11.59
2023-02-15T10:12:45.524Z,11.51
2023-02-15T10:15:30.227Z,11.58
2023-02-15T10:18:21.904Z,11.39
2023-02-15T10:21:04.348Z,11.19
2023-02-15T10:23:56.062Z,11.25
2023-02-15T10:26:33.857Z,11.37
2023-02-15T10:29:11.155Z,11.48
2023-02-15T10:31:50.221Z,11.58
2023-02-15T10:34:29.583Z,11.67
2023-02-15T10:37:26.949Z,11.71
2023-02-15T10:40:09.427Z,11.63
2023-02-15T10:42:56.942Z,11.70
2023-02-15T10:45:42.998Z,11.78
2023-02-15T10:48:37.078Z,11.85
2023-02-15T10:51:18.020Z,11.91
2023-02-15T10:54:06.888Z,11.97
2023-02-15T10:56:49.519Z,12.09
2023-02-15T10:59:35.898Z,12.16
2023-02-15T11:02:11.983Z,12.15
2023-02-15T11:04:56.484Z,12.09
2023-02-15T11:07:35.621Z,12.01
2023-02-15T11:10:30.844Z,11.89
2023-02-15T11:13:10.986Z,11.82
2023-02-15T11:15:47.806Z,11.86
2023-02-15T11:18:26.867Z,11.95
2023-02-15T11:21:04.286Z,12.01
2023-02-15T11:23:43.148Z,11.83
2023-02-15T11:26:21.616Z,11.63
2023-02-15T11:28:59.774Z,11.34
2023-02-15T11:31:45.206Z,11.14
2023-02-15T11:34:24.770Z,10.95
2023-02-15T11:37:00.896Z,10.87
2023-02-15T11:39:37.461Z,10.84
2023-02-15T11:42:15.979Z,10.74
2023-02-15T11:44:56.560Z,10.57
2023-02-15T11:47:28.941Z,10.43
2023-02-15T11:50:01.691Z,10.30
2023-02-15T11:52:34.735Z,10.24
2023-02-15T11:55:20.295Z,10.18
2023-02-15T11:57:58.529Z,10.18
2023-02-15T12:00:38.601Z,10.23
2023-02-15T12:03:23.405Z,10.33
2023-02-15T12:06:00.936Z,10.27
2023-02-15T12:08:40.416Z,10.24
2023-02-15T12:11:17.447Z,10.12
2023-02-15T12:14:03.842Z,10.05
2023-02-15T12:16:44.893Z,10.02
2023-02-15T12:19:30.713Z,9.95
2023-02-15T12:22:05.947Z,9.96
2023-02-15T12:24:46.411Z,9.97
2023-02-15T12:27:22.305Z,9.95
2023-02-15T12:29:54.149Z,9.84
2023-02-15T12:32:29.853Z,9.77
2023-02-15T12:35:10.065Z,9.77
2023-02-15T12:37:53.431Z,9.73
2023-02-15T12:40:31.256Z,9.72
2023-02-15T12:43:09.669Z,9.71
2023-02-15T12:45:42.302Z,9.69
2023-02-15T12:48:19.276Z,9.64
2023-02-15T12:50:55.924Z,9.51
2023-02-15T12:53:35.880Z,9.43
2023-02-15T12:56:11.064Z,9.46
2023-02-15T12:58:46.988Z,9.53
2023-02-15T13:01:25.597Z,9.55
2023-02-15T13:04:03.583Z,9.50
2023-02-15T13:06:38.838Z,9.43
2023-02-15T13:09:20.421Z,9.46
2023-02-15T13:11:53.337Z,9.51
2023-02-15T13:14:31.170Z,9.50
2023-02-15T13:17:08.724Z,9.44
2023-02-15T13:19:45.112Z,9.37
2023-02-15T13:22:21.096Z,9.35
2023-02-15T13:24:58.214Z,9.35
2023-02-15T13:27:41.412Z,9.36
2023-02-15T13:30:25.884Z,9.36
2023-02-15T13:33:03.091Z,9.32
2023-02-15T13:35:45.673Z,9.34
2023-02-15T13:38:44.669Z,9.33
2023-02-15T13:41:22.525Z,9.36
2023-02-15T13:44:01.719Z,9.38
2023-02-15T13:46:48.318Z,9.41
2023-02-15T13:49:30.534Z,9.41
2023-02-15T13:52:10.649Z,9.40
2023-02-15T13:55:02.700Z,9.37
2023-02-15T13:57:55.980Z,9.35
2023-02-15T14:00:34.901Z,9.34
2023-02-15T14:03:46.274Z,9.33
2023-02-15T14:06:47.178Z,9.35
2023-02-15T14:09:32.639Z,9.34
2023-02-15T14:12:22.683Z,9.34
2023-02-15T14:15:20.728Z,9.33
2023-02-15T14:18:04.212Z,9.34
2023-02-15T14:20:51.203Z,9.36
2023-02-15T14:23:37.309Z,9.35
2023-02-15T14:26:14.279Z,9.33
2023-02-15T14:28:53.553Z,9.30
2023-02-15T14:31:36.109Z,9.31
2023-02-15T14:34:18.016Z,9.32
2023-02-15T14:36:51.844Z,9.32
2023-02-15T14:39:51.871Z,9.30
2023-02-15T14:42:33.744Z,9.28
2023-02-15T14:45:17.736Z,9.27
2023-02-15T14:47:57.831Z,9.27
2023-02-15T14:50:47.832Z,9.27
2023-02-15T14:53:27.460Z,9.23
2023-02-15T14:56:19.886Z,9.22
2023-02-15T14:59:17.991Z,9.21
2023-02-15T15:02:00.509Z,9.19
2023-02-15T15:04:36.545Z,9.18
2023-02-15T15:07:24.396Z,9.17
2023-02-15T15:10:17.014Z,9.12
2023-02-15T15:12:50.114Z,9.07
2023-02-15T15:15:47.417Z,9.06
2023-02-15T15:18:52.878Z,9.04
2023-02-15T15:22:05.324Z,9.01
2023-02-15T15:24:53.772Z,8.98
2023-02-15T15:27:57.720Z,8.93
2023-02-15T15:31:02.961Z,8.88
2023-02-15T15:34:18.421Z,8.84
2023-02-15T15:37:27.605Z,8.81
2023-02-15T15:40:28.456Z,8.78
2023-02-15T15:43:29.146Z,8.75
2023-02-15T15:46:14.774Z,8.75
2023-02-15T15:48:47.410Z,8.75
2023-02-15T15:51:25.070Z,8.72
2023-02-15T15:53:58.056Z,8.71
2023-02-15T15:56:35.763Z,8.68
2023-02-15T15:59:15.578Z,8.64
2023-02-15T16:01:49.316Z,8.59
2023-02-15T16:04:30.933Z,8.53
2023-02-15T16:07:22.738Z,8.49
2023-02-15T16:10:04.232Z,8.44
2023-02-15T16:12:39.145Z,8.39
2023-02-15T16:15:19.516Z,8.33
2023-02-15T16:17:56.319Z,8.28
2023-02-15T16:20:32.800Z,8.24
2023-02-15T16:23:21.784Z,8.19
2023-02-15T16:26:05.407Z,8.13
2023-02-15T16:28:37.934Z,8.04
2023-02-15T16:31:14.525Z,8.00
2023-02-15T16:33:47.918Z,7.95
2023-02-15T16:36:27.367Z,7.90
2023-02-15T16:39:20.119Z,7.85
2023-02-15T16:41:56.900Z,7.77
2023-02-15T16:44:34.024Z,7.71
2023-02-15T16:47:06.534Z,7.67
2023-02-15T16:49:40.562Z,7.62
2023-02-15T16:52:22.169Z,7.56
2023-02-15T16:55:00.320Z,7.53
2023-02-15T16:57:36.967Z,7.48
2023-02-15T17:00:21.740Z,7.45
2023-02-15T17:03:04.045Z,7.40
2023-02-15T17:05:42.573Z,7.32
2023-02-15T17:08:20.668Z,7.34
2023-02-15T17:11:08.235Z,7.29
2023-02-15T17:13:41.268Z,7.28
2023-02-15T17:16:32.778Z,7.25
2023-02-15T17:19:11.649Z,7.22
2023-02-15T17:21:50.291Z,7.19
2023-02-15T17:24:27.601Z,7.14
2023-02-15T17:27:03.132Z,7.08
2023-02-15T17:29:39.924Z,7.05
2023-02-15T17:32:21.993Z,7.01
2023-02-15T17:35:11.445Z,6.98
2023-02-15T17:37:51.483Z,6.91
2023-02-15T17:40:27.532Z,6.85
2023-02-15T17:42:59.985Z,6.82
2023-02-15T17:45:36.537Z,6.77
2023-02-15T17:48:20.882Z,6.73
2023-02-15T17:50:53.489Z,6.69
2023-02-15T17:53:27.753Z,6.67
2023-02-15T17:56:00.906Z,6.61
2023-02-15T17:58:33.493Z,6.60
2023-02-15T18:01:26.315Z,6.57
2023-02-15T18:04:16.769Z,6.53
2023-02-15T18:07:07.212Z,6.50
2023-02-15T18:09:57.201Z,6.46
2023-02-15T18:12:31.932Z,6.42
2023-02-15T18:15:04.596Z,6.37
2023-02-15T18:17:43.014Z,6.32
2023-02-15T18:20:24.492Z,6.27
2023-02-15T18:22:57.509Z,6.22
2023-02-15T18:25:30.007Z,6.16
2023-02-15T18:28:07.789Z,6.11
2023-02-15T18:30:45.486Z,6.07
2023-02-15T18:33:31.170Z,6.00
2023-02-15T18:36:05.809Z,5.93
2023-02-15T18:38:39.410Z,5.87
2023-02-15T18:41:18.163Z,5.79
2023-02-15T18:43:54.232Z,5.76
2023-02-15T18:46:25.210Z,5.69
2023-02-15T18:48:59.935Z,5.65
2023-02-15T18:51:35.582Z,5.63
2023-02-15T18:54:17.016Z,5.62
2023-02-15T18:56:54.609Z,5.57
2023-02-15T18:59:28.382Z,5.50
2023-02-15T19:02:01.540Z,5.48
2023-02-15T19:04:35.833Z,5.47
2023-02-15T19:07:16.194Z,5.43
2023-02-15T19:09:54.261Z,5.44
2023-02-15T19:12:30.631Z,5.42
2023-02-15T19:15:02.952Z,5.40
2023-02-15T19:17:35.365Z,5.38
2023-02-15T19:20:11.513Z,5.34
2023-02-15T19:22:44.007Z,5.36
2023-02-15T19:25:23.351Z,5.36
2023-02-15T19:27:57.937Z,5.37
2023-02-15T19:30:33.554Z,5.35
2023-02-15T19:33:06.652Z,5.30
2023-02-15T19:35:41.236Z,5.26
2023-02-15T19:38:20.276Z,5.24
2023-02-15T19:40:53.399Z,5.21
2023-02-15T19:43:27.876Z,5.19
2023-02-15T19:46:00.617Z,5.17
2023-02-15T19:48:33.325Z,5.16
2023-02-15T19:51:07.183Z,5.14
2023-02-15T19:53:39.614Z,5.11
2023-02-15T19:56:15.870Z,5.08
2023-02-15T19:58:50.641Z,5.04
2023-02-15T20:01:23.515Z,5.00
2023-02-15T20:03:55.891Z,4.97
2023-02-15T20:06:28.227Z,4.94
2023-02-15T20:09:00.736Z,4.94
2023-02-15T20:11:33.021Z,4.91
2023-02-15T20:14:07.251Z,4.86
2023-02-15T20:16:43.179Z,4.80
2023-02-15T20:19:16.588Z,4.73
2023-02-15T20:21:55.075Z,4.67
2023-02-15T20:24:29.881Z,4.64
2023-02-15T20:27:02.314Z,4.62
2023-02-15T20:29:34.589Z,4.59
2023-02-15T20:32:12.828Z,4.59
2023-02-15T20:34:45.485Z,4.57
2023-02-15T20:37:26.451Z,4.54
2023-02-15T20:39:59.298Z,4.52
2023-02-15T20:42:31.661Z,4.48
2023-02-15T20:45:07.443Z,4.45
2023-02-15T20:47:39.736Z,4.46
2023-02-15T20:50:12.626Z,4.46
2023-02-15T20:52:45.693Z,4.49
2023-02-15T20:55:23.282Z,4.45
2023-02-15T20:57:56.168Z,4.51
2023-02-15T21:00:30.414Z,4.48
2023-02-15T21:03:06.406Z,4.47
2023-02-15T21:05:38.935Z,4.47
2023-02-15T21:08:16.157Z,4.48
2023-02-15T21:10:50.170Z,4.48
2023-02-15T21:13:26.373Z,4.47
2023-02-15T21:15:59.618Z,4.48
2023-02-15T21:18:34.781Z,4.49
2023-02-15T21:21:08.546Z,4.49
2023-02-15T21:23:43.179Z,4.47
2023-02-15T21:26:19.964Z,4.44
2023-02-15T21:28:52.613Z,4.43
2023-02-15T21:31:28.820Z,4.44
2023-02-15T21:34:01.768Z,4.45
2023-02-15T21:36:34.427Z,4.44
2023-02-15T21:39:07.187Z,4.43
2023-02-15T21:41:57.051Z,4.41
2023-02-15T21:44:46.922Z,4.41
2023-02-15T21:47:41.611Z,4.39
2023-02-15T21:50:34.828Z,4.35
2023-02-15T21:53:08.601Z,4.31
2023-02-15T21:55:41.072Z,4.27
2023-02-15T21:58:22.801Z,4.24
2023-02-15T22:00:56.602Z,4.22
2023-02-15T22:03:33.119Z,4.22
2023-02-15T22:06:06.202Z,4.22
2023-02-15T22:08:38.488Z,4.24
2023-02-15T22:11:15.245Z,4.24
2023-02-15T22:13:48.802Z,4.23
2023-02-15T22:16:24.117Z,4.26
2023-02-15T22:18:56.368Z,4.26
2023-02-15T22:21:31.500Z,4.25
2023-02-15T22:24:04.186Z,4.23
2023-02-15T22:26:36.497Z,4.22
2023-02-15T22:29:11.226Z,4.21
2023-02-15T22:31:43.592Z,4.20
2023-02-15T22:34:28.450Z,4.19
2023-02-15T22:37:01.510Z,4.17
2023-02-15T22:39:34.149Z,4.17
2023-02-15T22:42:07.130Z,4.16
2023-02-15T22:44:39.802Z,4.16
2023-02-15T22:47:21.482Z,4.12
2023-02-15T22:49:54.738Z,4.09
2023-02-15T22:52:27.310Z,4.09
2023-02-15T22:54:59.748Z,4.09
2023-02-15T22:57:33.534Z,4.09
2023-02-15T23:00:08.129Z,4.10
2023-02-15T23:02:40.936Z,4.05
2023-02-15T23:05:20.962Z,3.98
2023-02-15T23:07:53.644Z,3.91
2023-02-15T23:10:27.696Z,3.87
2023-02-15T23:13:19.419Z,3.86
2023-02-15T23:15:54.135Z,3.86
2023-02-15T23:18:30.704Z,3.84
2023-02-15T23:21:05.920Z,3.83
2023-02-15T23:23:41.174Z,3.83
2023-02-15T23:26:20.090Z,3.84
2023-02-15T23:28:53.442Z,3.84
2023-02-15T23:31:28.626Z,3.83
2023-02-15T23:34:03.658Z,3.79
2023-02-15T23:36:38.797Z,3.77
2023-02-15T23:39:34.157Z,3.73
2023-02-15T23:42:11.231Z,3.67
2023-02-15T23:44:45.124Z,3.62
2023-02-15T23:47:43.101Z,3.58
2023-02-15T23:50:21.835Z,3.59
2023-02-15T23:52:55.365Z,3.56
2023-02-15T23:55:34.555Z,3.54
2023-02-15T23:58:12.249Z,3.54
